Time;durP1;ratioP1;P1;durP2;ratioP2;P2;SDS_P1;SDS_P2;PMS_P1;PMS_P2;Temp;Humidity;BMP_temperature;BMP_pressure;BME280_temperature;BME280_humidity;BME280_pressure;Samples;Min_cycle;Max_cycle;Signal;HPM_P1;HPM_P2
2023/06/12 00:01:55;;;;;;;1999.90;999.90;;;16.80;99.90;;;;;;5052171;28;20510;-73
2023/06/12 00:04:21;;;;;;;1999.90;999.90;;;17.00;99.90;;;;;;5052362;28;20425;-73
2023/06/12 00:06:51;;;;;;;1999.90;999.90;;;17.10;99.90;;;;;;5051890;28;20417;-73
2023/06/12 00:09:17;;;;;;;1999.90;999.90;;;16.80;99.90;;;;;;5044426;28;20425;-73
2023/06/12 00:11:44;;;;;;;1999.90;999.90;;;16.90;99.90;;;;;;5043223;28;20417;-72
2023/06/12 00:14:11;;;;;;;1999.90;999.90;;;16.70;99.90;;;;;;5052184;28;20463;-72
2023/06/12 00:16:38;;;;;;;1999.90;999.90;;;16.90;99.90;;;;;;5052211;28;20443;-73
2023/06/12 00:19:05;;;;;;;1999.90;999.90;;;16.70;99.90;;;;;;5051529;28;20421;-73
2023/06/12 00:21:32;;;;;;;1999.90;999.90;;;16.40;99.90;;;;;;5045711;28;20946;-73
2023/06/12 00:24:00;;;;;;;1999.90;999.90;;;16.50;99.90;;;;;;5044108;28;20982;-73
2023/06/12 00:26:27;;;;;;;1999.90;999.90;;;16.60;99.90;;;;;;5051831;28;20413;-73
2023/06/12 00:28:53;;;;;;;1999.90;999.90;;;16.40;99.90;;;;;;5051475;28;20517;-72
2023/06/12 00:31:20;;;;;;;1999.90;999.90;;;16.60;99.90;;;;;;5051137;28;20819;-73
2023/06/12 00:33:47;;;;;;;1999.90;999.90;;;16.80;99.90;;;;;;5051796;28;20409;-72
2023/06/12 00:36:13;;;;;;;1999.90;999.90;;;16.80;99.90;;;;;;5044364;28;20503;-72
2023/06/12 00:38:40;;;;;;;1999.90;999.90;;;16.80;99.90;;;;;;5039398;28;20473;-73
2023/06/12 00:41:08;;;;;;;1999.90;999.90;;;16.70;99.90;;;;;;5038749;28;20460;-73
2023/06/12 00:43:35;;;;;;;1999.90;999.90;;;16.60;99.90;;;;;;5043304;28;20417;-73
2023/06/12 00:46:01;;;;;;;1999.90;999.90;;;16.50;99.90;;;;;;5051536;28;20413;-74
2023/06/12 00:48:29;;;;;;;1999.90;999.90;;;16.30;99.90;;;;;;5051703;28;20811;-73
2023/06/12 00:50:57;;;;;;;1999.90;999.90;;;16.80;99.90;;;;;;5042528;28;20772;-75
2023/06/12 00:53:24;;;;;;;1999.90;999.90;;;16.20;99.90;;;;;;5042727;28;20432;-73
2023/06/12 00:55:51;;;;;;;1999.90;999.90;;;16.00;99.90;;;;;;5051240;28;20417;-71
2023/06/12 00:58:19;;;;;;;1999.90;999.90;;;16.20;99.90;;;;;;5051183;28;20986;-73
2023/06/12 01:00:48;;;;;;;1999.90;999.90;;;16.30;99.90;;;;;;5050369;28;21106;-72
2023/06/12 01:03:14;;;;;;;1999.90;999.90;;;16.40;99.90;;;;;;5050466;28;20417;-72
2023/06/12 01:05:43;;;;;;;1999.90;999.90;;;16.40;99.90;;;;;;5040071;28;20434;-71
2023/06/12 01:08:18;;;;;;;1999.90;999.90;;;16.40;99.90;;;;;;5042773;28;20475;-73
2023/06/12 01:10:51;;;;;;;1999.90;999.90;;;16.50;99.90;;;;;;5050378;28;20445;-73
2023/06/12 01:13:20;;;;;;;1999.90;999.90;;;16.40;99.90;;;;;;5050457;28;20466;-72
2023/06/12 01:15:47;;;;;;;1999.90;999.90;;;16.30;99.90;;;;;;5050796;28;20900;-72
2023/06/12 01:18:14;;;;;;;1999.90;999.90;;;16.40;99.90;;;;;;5050827;28;20448;-73
2023/06/12 01:20:42;;;;;;;1999.90;999.90;;;16.60;99.90;;;;;;5038221;28;20488;-73
2023/06/12 01:23:14;;;;;;;1999.90;999.90;;;16.80;99.90;;;;;;5050707;28;20447;-73
2023/06/12 01:26:11;;;;;;;1999.90;999.90;;;16.60;99.90;;;;;;5050722;28;20417;-72
2023/06/12 01:29:24;;;;;;;1999.90;999.90;;;16.40;99.90;;;;;;5049890;28;20413;-72
2023/06/12 01:31:59;;;;;;;1999.90;999.90;;;16.50;99.90;;;;;;5050548;28;20420;-73
2023/06/12 01:34:29;;;;;;;1999.90;999.90;;;16.20;99.90;;;;;;5044713;28;20429;-73
2023/06/12 01:37:05;;;;;;;1999.90;999.90;;;16.40;99.90;;;;;;5042084;28;20453;-73
2023/06/12 01:39:36;;;;;;;1999.90;999.90;;;16.40;99.90;;;;;;5029950;28;20915;-72
2023/06/12 01:42:03;;;;;;;1999.90;999.90;;;16.40;99.90;;;;;;5035414;28;20448;-73
2023/06/12 01:44:30;;;;;;;1999.90;999.90;;;16.50;99.90;;;;;;5050704;28;20413;-69
2023/06/12 01:46:57;;;;;;;1999.90;999.90;;;16.50;99.90;;;;;;5048066;28;20417;-71
2023/06/12 01:49:24;;;;;;;1999.90;999.90;;;16.40;99.90;;;;;;5033826;28;20415;-73
2023/06/12 01:51:51;;;;;;;1999.90;999.90;;;16.20;99.90;;;;;;5048717;28;20415;-73
2023/06/12 01:54:18;;;;;;;1999.90;999.90;;;16.10;99.90;;;;;;5050500;28;20406;-73
2023/06/12 01:56:45;;;;;;;1999.90;999.90;;;16.20;99.90;;;;;;5050278;28;20417;-71
2023/06/12 01:59:12;;;;;;;1999.90;999.90;;;15.90;99.90;;;;;;5050047;28;20463;-72
2023/06/12 02:01:39;;;;;;;1999.90;999.90;;;15.90;99.90;;;;;;5048739;28;20956;-71
2023/06/12 02:04:07;;;;;;;1999.90;999.90;;;16.00;99.90;;;;;;5037399;28;20514;-73
2023/06/12 02:06:33;;;;;;;1999.90;999.90;;;16.20;99.90;;;;;;5047076;28;20417;-72
2023/06/12 02:09:00;;;;;;;1999.90;999.90;;;16.20;99.90;;;;;;5049851;28;20850;-70
2023/06/12 02:11:27;;;;;;;1999.90;999.90;;;16.30;99.90;;;;;;5049221;28;20879;-72
2023/06/12 02:13:53;;;;;;;1999.90;999.90;;;16.30;99.90;;;;;;5049891;28;20417;-73
2023/06/12 02:16:21;;;;;;;1999.90;999.90;;;16.10;99.90;;;;;;5038483;28;20502;-72
2023/06/12 02:18:48;;;;;;;1999.90;999.90;;;16.20;99.90;;;;;;5039446;28;20963;-73
2023/06/12 02:21:16;;;;;;;1999.90;999.90;;;16.30;99.90;;;;;;5049582;28;20425;-71
2023/06/12 02:23:42;;;;;;;1999.90;999.90;;;16.30;99.90;;;;;;5049644;28;20424;-71
2023/06/12 02:26:09;;;;;;;1999.90;999.90;;;16.00;99.90;;;;;;5053928;28;20409;-73
2023/06/12 02:28:36;;;;;;;1999.90;999.90;;;15.90;99.90;;;;;;5053341;28;20846;-72
2023/06/12 02:31:03;;;;;;;1999.90;999.90;;;16.10;99.90;;;;;;5049124;28;20420;-72
2023/06/12 02:33:31;;;;;;;1999.90;999.90;;;16.00;99.90;;;;;;5040519;28;20545;-73
2023/06/12 02:35:58;;;;;;;1999.90;999.90;;;16.00;99.90;;;;;;5045053;28;20425;-74
2023/06/12 02:38:27;;;;;;;1999.90;999.90;;;15.90;99.90;;;;;;5053835;28;20414;-73
2023/06/12 02:40:54;;;;;;;1999.90;999.90;;;15.70;99.90;;;;;;5052990;28;20432;-74
2023/06/12 02:43:20;;;;;;;1999.90;999.90;;;15.60;99.90;;;;;;5053682;28;20564;-75
2023/06/12 02:45:47;;;;;;;1999.90;999.90;;;15.50;99.90;;;;;;5043041;28;20484;-73
2023/06/12 02:48:14;;;;;;;1999.90;999.90;;;15.50;99.90;;;;;;5045147;28;20442;-73
2023/06/12 02:50:40;;;;;;;1999.90;999.90;;;15.40;99.90;;;;;;5052894;28;20405;-75
2023/06/12 02:53:07;;;;;;;1999.90;999.90;;;15.30;99.90;;;;;;5053020;28;20830;-75
2023/06/12 02:55:39;;;;;;;1999.90;999.90;;;15.40;99.90;;;;;;5053062;28;20887;-69
2023/06/12 02:58:06;;;;;;;1999.90;999.90;;;15.40;99.90;;;;;;5053294;28;20496;-73
2023/06/12 03:00:33;;;;;;;1999.90;999.90;;;15.30;99.90;;;;;;5048483;28;20845;-72
2023/06/12 03:03:00;;;;;;;1999.90;999.90;;;15.30;99.90;;;;;;5044871;28;20421;-73
2023/06/12 03:05:27;;;;;;;1999.90;999.90;;;15.30;99.90;;;;;;5053177;28;20953;-73
2023/06/12 03:07:54;;;;;;;1999.90;999.90;;;15.20;99.90;;;;;;5053050;28;21186;-74
2023/06/12 03:10:21;;;;;;;1999.90;999.90;;;15.20;99.90;;;;;;5052826;28;20844;-75
2023/06/12 03:12:49;;;;;;;1999.90;999.90;;;15.20;99.90;;;;;;5052894;28;20425;-74
2023/06/12 03:15:16;;;;;;;1999.90;999.90;;;15.30;99.90;;;;;;5040793;28;20438;-72
2023/06/12 03:17:43;;;;;;;1999.90;999.90;;;15.30;99.90;;;;;;5050525;28;20504;-72
2023/06/12 03:20:11;;;;;;;1999.90;999.90;;;15.30;99.90;;;;;;5052756;28;20424;-72
2023/06/12 03:22:38;;;;;;;1999.90;999.90;;;15.40;99.90;;;;;;5052421;28;20475;-73
2023/06/12 03:25:05;;;;;;;1999.90;999.90;;;15.40;99.90;;;;;;5052491;28;20961;-72
2023/06/12 03:27:32;;;;;;;1999.90;999.90;;;15.40;99.90;;;;;;5052764;28;20413;-73
2023/06/12 03:30:00;;;;;;;1999.90;999.90;;;15.90;99.90;;;;;;5042227;28;20587;-73
2023/06/12 03:32:27;;;;;;;1999.90;999.90;;;15.70;99.90;;;;;;5047537;28;20416;-73
2023/06/12 03:34:54;;;;;;;1999.90;999.90;;;15.70;99.90;;;;;;5052271;28;20409;-73
2023/06/12 03:37:21;;;;;;;1999.90;999.90;;;15.60;99.90;;;;;;5052596;28;20452;-73
2023/06/12 03:39:48;;;;;;;1999.90;999.90;;;15.80;99.90;;;;;;5052142;28;20432;-75
2023/06/12 03:42:15;;;;;;;1999.90;999.90;;;15.80;99.90;;;;;;5043721;28;20490;-72
2023/06/12 03:44:41;;;;;;;1999.90;999.90;;;15.70;99.90;;;;;;5038275;28;20441;-73
2023/06/12 03:47:11;;;;;;;1999.90;999.90;;;15.80;99.90;;;;;;5052394;28;20421;-73
2023/06/12 03:49:38;;;;;;;1999.90;999.90;;;16.10;99.90;;;;;;5052286;28;20444;-72
2023/06/12 03:52:05;;;;;;;1999.90;999.90;;;15.90;99.90;;;;;;5052106;28;20831;-75
2023/06/12 03:54:32;;;;;;;1999.90;999.90;;;15.70;99.90;;;;;;5052502;28;20417;-75
2023/06/12 03:56:59;;;;;;;1999.90;999.90;;;15.90;99.90;;;;;;5044458;28;20436;-73
2023/06/12 03:59:25;;;;;;;1999.90;999.90;;;16.00;99.90;;;;;;5034461;28;20824;-73
2023/06/12 04:01:52;;;;;;;1999.90;999.90;;;16.20;99.90;;;;;;5050098;28;20476;-73
2023/06/12 04:04:20;;;;;;;1999.90;999.90;;;16.40;99.90;;;;;;5052417;28;20464;-72
2023/06/12 04:06:47;;;;;;;1999.90;999.90;;;16.50;99.90;;;;;;5051661;28;21070;-71
2023/06/12 04:09:14;;;;;;;1999.90;999.90;;;16.50;99.90;;;;;;5051593;28;20431;-72
2023/06/12 04:11:41;;;;;;;1999.90;999.90;;;16.20;99.90;;;;;;5046678;28;20429;-70
2023/06/12 04:14:09;;;;;;;1999.90;999.90;;;16.20;99.90;;;;;;5043999;28;21284;-73
2023/06/12 04:16:36;;;;;;;1999.90;999.90;;;16.40;99.90;;;;;;5051913;28;20957;-73
2023/06/12 04:19:03;;;;;;;1999.90;999.90;;;16.50;99.90;;;;;;5051576;28;20413;-73
2023/06/12 04:21:33;;;;;;;1999.90;999.90;;;16.60;99.90;;;;;;5051760;28;20461;-72
2023/06/12 04:24:00;;;;;;;1999.90;999.90;;;16.60;99.90;;;;;;5051486;28;20424;-73
2023/06/12 04:26:26;;;;;;;1999.90;999.90;;;16.80;99.90;;;;;;5044963;28;20437;-75
2023/06/12 04:28:54;;;;;;;1999.90;999.90;;;16.90;99.90;;;;;;5043144;28;20929;-75
2023/06/12 04:31:21;;;;;;;1999.90;999.90;;;17.10;99.90;;;;;;5039709;28;20518;-75
2023/06/12 04:33:51;;;;;;;1999.90;999.90;;;17.40;99.90;;;;;;5048886;28;20421;-75
2023/06/12 04:36:18;;;;;;;1999.90;999.90;;;17.80;99.90;;;;;;5051683;28;20424;-74
2023/06/12 04:38:50;;;;;;;1999.90;999.90;;;18.20;99.90;;;;;;5051154;28;21010;-74
2023/06/12 04:41:17;;;;;;;1999.90;999.90;;;18.70;99.90;;;;;;5037646;28;20463;-75
2023/06/12 04:43:44;;;;;;;1999.90;999.90;;;19.00;99.90;;;;;;5048214;28;20413;-73
2023/06/12 04:46:13;;;;;;;1999.90;999.90;;;19.10;99.90;;;;;;5051109;28;20417;-74
2023/06/12 04:48:41;;;;;;;1999.90;999.90;;;19.00;99.90;;;;;;5050630;28;20948;-75
2023/06/12 04:51:09;;;;;;;1999.90;999.90;;;19.20;99.90;;;;;;5051212;28;20452;-75
2023/06/12 04:53:39;;;;;;;1999.90;999.90;;;19.40;99.90;;;;;;5051182;28;20467;-75
2023/06/12 04:56:08;;;;;;;1999.90;999.90;;;19.50;99.90;;;;;;5033868;28;20996;-76
2023/06/12 04:58:35;;;;;;;1999.90;999.90;;;19.40;99.90;;;;;;5046459;28;20830;-70
2023/06/12 05:01:02;;;;;;;1999.90;999.90;;;19.40;99.90;;;;;;5050903;28;20425;-74
2023/06/12 05:03:28;;;;;;;1999.90;999.90;;;19.70;99.90;;;;;;5051161;28;20490;-74
2023/06/12 05:05:55;;;;;;;1999.90;999.90;;;19.40;99.90;;;;;;5051199;28;20409;-76
2023/06/12 05:08:22;;;;;;;1999.90;999.90;;;19.50;99.90;;;;;;5044434;28;20439;-73
2023/06/12 05:10:49;;;;;;;1999.90;999.90;;;19.90;99.90;;;;;;5039171;28;20959;-73
2023/06/12 05:13:16;;;;;;;1999.90;999.90;;;20.00;99.90;;;;;;5050772;28;20467;-73
2023/06/12 05:15:43;;;;;;;1999.90;999.90;;;19.90;99.90;;;;;;5050823;28;20421;-74
2023/06/12 05:18:10;;;;;;;1999.90;999.90;;;19.50;99.90;;;;;;5051008;28;20409;-75
2023/06/12 05:20:37;;;;;;;1999.90;999.90;;;19.30;99.90;;;;;;5050134;28;20417;-75
2023/06/12 05:23:03;;;;;;;1999.90;999.90;;;19.00;99.90;;;;;;5042114;28;20468;-74
2023/06/12 05:25:30;;;;;;;1999.90;999.90;;;19.10;99.90;;;;;;5033549;28;20897;-75
2023/06/12 05:27:57;;;;;;;1999.90;999.90;;;19.20;99.90;;;;;;5049041;28;20417;-74
2023/06/12 05:30:25;;;;;;;1999.90;999.90;;;18.90;99.90;;;;;;5039459;28;20434;-74
2023/06/12 05:32:52;;;;;;;1999.90;999.90;;;19.30;99.90;;;;;;5047682;28;20410;-75
2023/06/12 05:35:19;;;;;;;1999.90;999.90;;;19.50;99.90;;;;;;5050608;28;20447;-74
2023/06/12 05:37:45;;;;;;;1999.90;999.90;;;19.70;99.90;;;;;;5045411;28;20435;-74
2023/06/12 05:40:13;;;;;;;1999.90;999.90;;;19.80;99.90;;;;;;5042345;28;20425;-74
2023/06/12 05:42:40;;;;;;;1999.90;999.90;;;20.00;99.90;;;;;;5027784;28;20837;-72
2023/06/12 05:45:08;;;;;;;1999.90;999.90;;;20.10;99.90;;;;;;5041373;28;20465;-73
2023/06/12 05:47:36;;;;;;;1999.90;999.90;;;20.30;99.90;;;;;;5050184;28;20471;-72
2023/06/12 05:50:02;;;;;;;1999.90;999.90;;;20.20;99.90;;;;;;5049746;28;20416;-73
2023/06/12 05:52:29;;;;;;;1999.90;999.90;;;20.40;99.90;;;;;;5036839;28;20427;-72
2023/06/12 05:54:56;;;;;;;1999.90;999.90;;;20.40;99.90;;;;;;5031766;28;20419;-73
2023/06/12 05:57:23;;;;;;;1999.90;999.90;;;20.50;99.90;;;;;;5040515;28;20434;-73
2023/06/12 05:59:50;;;;;;;1999.90;999.90;;;20.40;99.90;;;;;;5029916;28;20415;-73
2023/06/12 06:02:17;;;;;;;1999.90;999.90;;;20.30;99.90;;;;;;5029785;28;20435;-73
2023/06/12 06:04:46;;;;;;;1999.90;999.90;;;20.70;99.90;;;;;;5032383;28;20436;-71
2023/06/12 06:07:12;;;;;;;1999.90;999.90;;;20.90;99.90;;;;;;5020063;28;20785;-73
2023/06/12 06:09:39;;;;;;;1999.90;999.90;;;21.30;99.90;;;;;;5024941;28;20431;-72
2023/06/12 06:12:07;;;;;;;1999.90;999.90;;;21.10;99.90;;;;;;5031665;28;20411;-73
2023/06/12 06:14:33;;;;;;;1999.90;999.90;;;21.60;99.90;;;;;;5041833;28;20423;-73
2023/06/12 06:17:00;;;;;;;1999.90;999.90;;;21.30;99.90;;;;;;5041084;28;20421;-73
2023/06/12 06:19:27;;;;;;;1999.90;999.90;;;21.40;99.90;;;;;;5031987;28;20437;-73
2023/06/12 06:21:55;;;;;;;1999.90;999.90;;;21.30;99.90;;;;;;5038152;28;20430;-74
2023/06/12 06:24:21;;;;;;;1999.90;999.90;;;21.50;99.90;;;;;;5049797;28;20489;-74
2023/06/12 06:26:48;;;;;;;1999.90;999.90;;;21.70;99.90;;;;;;5035396;28;20429;-74
2023/06/12 06:29:15;;;;;;;1999.90;999.90;;;22.10;99.90;;;;;;5037067;28;20418;-73
2023/06/12 06:31:41;;;;;;;1999.90;999.90;;;22.20;99.90;;;;;;5037843;28;20431;-72
2023/06/12 06:34:08;;;;;;;1999.90;999.90;;;22.40;99.90;;;;;;5031424;28;20558;-74
2023/06/12 06:36:35;;;;;;;1999.90;999.90;;;22.60;99.90;;;;;;5041000;28;20507;-74
2023/06/12 06:39:03;;;;;;;1999.90;999.90;;;22.70;99.90;;;;;;5033476;28;20445;-73
2023/06/12 06:41:30;;;;;;;1999.90;999.90;;;22.70;99.90;;;;;;5033707;28;20436;-75
2023/06/12 06:43:56;;;;;;;1999.90;999.90;;;22.90;99.90;;;;;;5032794;28;20419;-75
2023/06/12 06:46:23;;;;;;;1999.90;999.90;;;22.80;99.90;;;;;;5041464;28;20439;-73
2023/06/12 06:48:49;;;;;;;1999.90;999.90;;;22.50;99.90;;;;;;5032151;28;20422;-75
2023/06/12 06:51:16;;;;;;;1999.90;999.90;;;22.30;99.90;;;;;;5022897;28;20484;-73
2023/06/12 06:53:43;;;;;;;1999.90;999.90;;;22.20;99.90;;;;;;5036602;28;20413;-73
2023/06/12 06:56:11;;;;;;;1999.90;999.90;;;22.20;99.90;;;;;;5036243;28;20445;-74
2023/06/12 06:58:37;;;;;;;1999.90;999.90;;;22.40;99.90;;;;;;5037143;28;20825;-74
2023/06/12 07:01:04;;;;;;;1999.90;999.90;;;22.60;99.90;;;;;;5046975;28;20468;-73
2023/06/12 07:03:31;;;;;;;1999.90;999.90;;;22.90;99.90;;;;;;5049170;28;20452;-76
2023/06/12 07:05:57;;;;;;;1999.90;999.90;;;23.10;99.50;;;;;;5039407;28;20428;-73
2023/06/12 07:08:24;;;;;;;1999.90;999.90;;;23.30;97.90;;;;;;5042234;28;20442;-74
2023/06/12 07:10:51;;;;;;;1999.90;999.90;;;23.40;97.00;;;;;;5045836;28;20977;-74
2023/06/12 07:13:19;;;;;;;1999.90;999.90;;;23.40;97.00;;;;;;5044786;28;20467;-73
2023/06/12 07:15:45;;;;;;;1999.90;999.90;;;23.50;96.30;;;;;;5047843;28;20413;-73
2023/06/12 07:18:12;;;;;;;1999.90;999.90;;;23.60;95.40;;;;;;5043420;28;20463;-73
2023/06/12 07:20:39;;;;;;;1999.90;999.90;;;23.90;95.60;;;;;;5051396;28;20448;-74
2023/06/12 07:23:05;;;;;;;1999.90;999.90;;;24.10;95.00;;;;;;5031138;28;20526;-75
2023/06/12 07:25:32;;;;;;;1999.90;999.90;;;24.10;94.00;;;;;;5044762;28;20417;-74
2023/06/12 07:27:59;;;;;;;1999.90;999.90;;;23.60;93.70;;;;;;5052765;28;20452;-73
2023/06/12 07:30:27;;;;;;;1999.90;999.90;;;23.40;94.00;;;;;;5043980;28;20436;-73
2023/06/12 07:32:54;;;;;;;1999.90;999.90;;;23.40;94.30;;;;;;5043847;28;20418;-73
2023/06/12 07:35:21;;;;;;;1999.90;999.90;;;23.70;94.90;;;;;;5051044;28;20429;-73
2023/06/12 07:37:49;;;;;;;1999.90;999.90;;;23.90;94.10;;;;;;5052768;28;20420;-71
2023/06/12 07:40:16;;;;;;;1999.90;999.90;;;23.80;93.30;;;;;;5051731;28;20417;-74
2023/06/12 07:42:43;;;;;;;1999.90;999.90;;;24.00;93.50;;;;;;5044844;28;20436;-73
2023/06/12 07:45:10;;;;;;;1999.90;999.90;;;24.10;92.10;;;;;;5028149;28;20509;-75
2023/06/12 07:47:38;;;;;;;1999.90;999.90;;;24.30;91.60;;;;;;5037896;28;20901;-74
2023/06/12 07:50:06;;;;;;;1999.90;999.90;;;24.30;91.20;;;;;;5030457;28;20457;-74
2023/06/12 07:52:33;;;;;;;1999.90;999.90;;;24.20;91.80;;;;;;5032334;28;20533;-73
2023/06/12 07:55:00;;;;;;;1999.90;999.90;;;24.30;92.50;;;;;;5032151;28;20415;-74
2023/06/12 07:57:28;;;;;;;1999.90;999.90;;;24.60;91.90;;;;;;5032862;28;20433;-75
2023/06/12 07:59:54;;;;;;;1999.90;999.90;;;24.80;91.80;;;;;;5034512;28;20425;-74
2023/06/12 08:02:21;;;;;;;1999.90;999.90;;;24.80;91.40;;;;;;5043341;28;20452;-75
2023/06/12 08:04:49;;;;;;;1999.90;999.90;;;24.80;90.50;;;;;;5051992;28;20429;-73
2023/06/12 08:07:16;;;;;;;1999.90;999.90;;;25.00;90.40;;;;;;5052156;28;20413;-74
2023/06/12 08:09:43;;;;;;;1999.90;999.90;;;25.10;88.80;;;;;;5051167;28;20412;-75
2023/06/12 08:12:10;;;;;;;1999.90;999.90;;;25.20;87.90;;;;;;5046297;28;20418;-75
2023/06/12 08:14:38;;;;;;;1999.90;999.90;;;24.90;88.60;;;;;;5021830;28;20473;-76
2023/06/12 08:17:04;;;;;;;1999.90;999.90;;;24.80;86.60;;;;;;5040990;28;20840;-75
2023/06/12 08:19:32;;;;;;;1999.90;999.90;;;24.80;85.00;;;;;;5051051;28;20413;-73
2023/06/12 08:22:00;;;;;;;1999.90;999.90;;;24.90;85.70;;;;;;5020549;28;20555;-75
2023/06/12 08:24:29;;;;;;;1999.90;999.90;;;25.10;83.20;;;;;;5043152;28;20480;-76
2023/06/12 08:26:56;;;;;;;1999.90;999.90;;;25.40;80.00;;;;;;5031797;28;20437;-73
2023/06/12 08:29:23;;;;;;;1999.90;999.90;;;25.30;78.30;;;;;;5043238;28;20477;-76
2023/06/12 08:31:49;;;;;;;1999.90;999.90;;;25.30;78.10;;;;;;5030946;28;20473;-75
2023/06/12 08:34:16;;;;;;;1999.90;999.90;;;25.50;78.50;;;;;;5039597;28;20473;-75
2023/06/12 08:36:43;;;;;;;1999.90;999.90;;;25.50;78.80;;;;;;5039647;28;20976;-75
2023/06/12 08:39:11;;;;;;;1999.90;999.90;;;25.70;78.90;;;;;;5049161;28;20425;-76
2023/06/12 08:41:47;;;;;;;1999.90;999.90;;;25.90;78.00;;;;;;5045718;28;20455;-75
2023/06/12 08:44:16;;;;;;;1999.90;999.90;;;25.80;70.70;;;;;;5042677;28;20425;-74
2023/06/12 08:46:43;;;;;;;1999.90;999.90;;;25.80;71.60;;;;;;5050822;28;20421;-76
2023/06/12 08:49:12;;;;;;;1999.90;999.90;;;25.90;71.40;;;;;;5049631;28;20471;-75
2023/06/12 08:51:42;;;;;;;1999.90;999.90;;;26.10;72.30;;;;;;5050321;28;20457;-75
2023/06/12 08:54:11;;;;;;;1999.90;999.90;;;26.10;72.60;;;;;;5051354;28;20906;-75
2023/06/12 08:56:42;;;;;;;1999.90;999.90;;;26.00;72.30;;;;;;5038180;28;20492;-75
2023/06/12 08:59:09;;;;;;;1999.90;999.90;;;25.80;73.10;;;;;;5049052;28;20421;-75
2023/06/12 09:01:38;;;;;;;1999.90;999.90;;;25.70;72.20;;;;;;5049607;28;20472;-75
2023/06/12 09:04:09;;;;;;;1999.90;999.90;;;26.00;73.90;;;;;;5051040;28;20516;-75
2023/06/12 09:06:37;;;;;;;1999.90;999.90;;;25.80;69.00;;;;;;5050902;28;20425;-75
2023/06/12 09:09:05;;;;;;;1999.90;999.90;;;26.00;69.40;;;;;;5050693;28;20784;-74
2023/06/12 09:11:36;;;;;;;1999.90;999.90;;;26.00;67.50;;;;;;5036753;28;20425;-75
2023/06/12 09:14:03;;;;;;;1999.90;999.90;;;26.00;66.60;;;;;;5048367;28;20496;-75
2023/06/12 09:16:30;;;;;;;1999.90;999.90;;;26.20;66.70;;;;;;5050520;28;20475;-75
2023/06/12 09:18:57;;;;;;;1999.90;999.90;;;26.20;67.40;;;;;;5044175;28;20480;-76
2023/06/12 09:21:24;;;;;;;1999.90;999.90;;;26.20;65.70;;;;;;5020310;28;20954;-75
2023/06/12 09:23:52;;;;;;;1999.90;999.90;;;26.50;68.50;;;;;;5038529;28;20438;-75
2023/06/12 09:26:21;;;;;;;1999.90;999.90;;;26.70;67.40;;;;;;5049711;28;20895;-75
2023/06/12 09:28:52;;;;;;;1999.90;999.90;;;26.70;64.60;;;;;;5050090;28;20458;-75
2023/06/12 09:31:19;;;;;;;1999.90;999.90;;;26.30;59.60;;;;;;5049865;28;20846;-75
2023/06/12 09:33:46;;;;;;;1999.90;999.90;;;26.20;60.20;;;;;;5049745;28;20788;-76
2023/06/12 09:36:14;;;;;;;1999.90;999.90;;;26.20;62.00;;;;;;5023885;28;20440;-75
2023/06/12 09:38:41;;;;;;;1999.90;999.90;;;26.40;60.90;;;;;;5034846;28;20434;-75
2023/06/12 09:41:09;;;;;;;1999.90;999.90;;;26.60;59.20;;;;;;5047375;28;20413;-75
2023/06/12 09:43:36;;;;;;;1999.90;999.90;;;26.70;59.20;;;;;;5040457;28;20431;-75
2023/06/12 09:46:08;;;;;;;1999.90;999.90;;;26.40;59.00;;;;;;5029716;28;20415;-75
2023/06/12 09:48:36;;;;;;;1999.90;999.90;;;26.20;61.00;;;;;;5030424;28;20414;-76
2023/06/12 09:51:07;;;;;;;1999.90;999.90;;;26.20;63.00;;;;;;5022230;28;20519;-75
2023/06/12 09:53:37;;;;;;;1999.90;999.90;;;26.20;59.50;;;;;;5041632;28;20496;-75
2023/06/12 09:56:06;;;;;;;1999.90;999.90;;;26.20;61.30;;;;;;5039503;28;20441;-75
2023/06/12 09:58:36;;;;;;;1999.90;999.90;;;26.20;61.00;;;;;;5037430;28;21012;-76
2023/06/12 10:01:06;;;;;;;1999.90;999.90;;;26.40;61.40;;;;;;5019507;28;20418;-76
2023/06/12 10:03:37;;;;;;;1999.90;999.90;;;26.60;59.40;;;;;;5029568;28;20921;-75
2023/06/12 10:06:06;;;;;;;1999.90;999.90;;;26.60;59.50;;;;;;5027648;28;20446;-71
2023/06/12 10:08:34;;;;;;;1999.90;999.90;;;26.70;60.70;;;;;;5030019;28;20450;-76
2023/06/12 10:11:01;;;;;;;1999.90;999.90;;;26.40;59.70;;;;;;5029161;28;20426;-75
2023/06/12 10:13:28;;;;;;;1999.90;999.90;;;26.20;59.40;;;;;;5022058;28;20422;-73
2023/06/12 10:15:55;;;;;;;1999.90;999.90;;;26.40;59.10;;;;;;5029661;28;20419;-75
2023/06/12 10:18:25;;;;;;;1999.90;999.90;;;26.90;59.20;;;;;;5030199;28;20442;-75
2023/06/12 10:20:54;;;;;;;1999.90;999.90;;;26.70;54.50;;;;;;5026860;28;20529;-73
2023/06/12 10:23:22;;;;;;;1999.90;999.90;;;26.30;51.80;;;;;;5029451;28;20778;-73
2023/06/12 10:25:50;;;;;;;1999.90;999.90;;;26.20;50.60;;;;;;5029505;28;20427;-73
2023/06/12 10:28:17;;;;;;;1999.90;999.90;;;26.10;48.60;;;;;;5027574;28;20423;-73
2023/06/12 10:31:08;;;;;;;1999.90;999.90;;;26.00;50.10;;;;;;5022924;28;20987;-73
2023/06/12 10:33:36;;;;;;;1999.90;999.90;;;26.00;51.60;;;;;;5020597;28;20431;-75
2023/06/12 10:36:10;;;;;;;1999.90;999.90;;;26.20;50.80;;;;;;5018968;28;20439;-75
2023/06/12 10:38:44;;;;;;;1999.90;999.90;;;26.30;51.30;;;;;;5029552;28;20541;-74
2023/06/12 10:41:11;;;;;;;1999.90;999.90;;;26.50;49.90;;;;;;5030129;28;20509;-75
2023/06/12 10:43:40;;;;;;;1999.90;999.90;;;26.60;50.70;;;;;;5036451;28;20484;-72
2023/06/12 10:46:11;;;;;;;1999.90;999.90;;;26.40;49.40;;;;;;5041318;28;20441;-76
2023/06/12 10:48:47;;;;;;;1999.90;999.90;;;26.40;51.10;;;;;;5052601;28;20496;-73
2023/06/12 10:51:13;;;;;;;1999.90;999.90;;;26.30;48.70;;;;;;5038622;28;20434;-73
2023/06/12 10:53:44;;;;;;;1999.90;999.90;;;26.40;50.00;;;;;;5044914;28;20884;-72
2023/06/12 10:56:11;;;;;;;1999.90;999.90;;;26.00;50.70;;;;;;5053437;28;20416;-73
2023/06/12 10:58:39;;;;;;;1999.90;999.90;;;26.00;51.70;;;;;;5052665;28;20514;-70
2023/06/12 11:01:09;;;;;;;1999.90;999.90;;;25.90;52.00;;;;;;5052683;28;20417;-73
2023/06/12 11:03:39;;;;;;;1999.90;999.90;;;26.10;52.20;;;;;;5045079;28;20437;-71
2023/06/12 11:06:13;;;;;;;1999.90;999.90;;;26.40;51.50;;;;;;5045221;28;20444;-74
2023/06/12 11:08:41;;;;;;;1999.90;999.90;;;26.50;50.40;;;;;;5052886;28;20452;-75
2023/06/12 11:11:08;;;;;;;1999.90;999.90;;;26.40;51.20;;;;;;5052744;28;20420;-76
2023/06/12 11:13:35;;;;;;;1999.90;999.90;;;26.60;50.90;;;;;;5052930;28;20417;-73
2023/06/12 11:16:02;;;;;;;1999.90;999.90;;;26.40;50.30;;;;;;5053072;28;20613;-77
2023/06/12 11:18:29;;;;;;;1999.90;999.90;;;26.30;50.70;;;;;;5040770;28;20434;-76
2023/06/12 11:20:57;;;;;;;1999.90;999.90;;;26.70;51.90;;;;;;5047283;28;20448;-75
2023/06/12 11:23:26;;;;;;;1999.90;999.90;;;26.50;51.10;;;;;;5036133;28;20426;-75
2023/06/12 11:25:54;;;;;;;1999.90;999.90;;;26.50;51.00;;;;;;5032871;28;20419;-75
2023/06/12 11:28:23;;;;;;;1999.90;999.90;;;26.30;51.10;;;;;;5032921;28;20426;-74
2023/06/12 11:30:51;;;;;;;1999.90;999.90;;;26.50;51.30;;;;;;5030047;28;20438;-75
2023/06/12 11:33:18;;;;;;;1999.90;999.90;;;27.00;52.00;;;;;;5042665;28;20411;-75
2023/06/12 11:35:47;;;;;;;1999.90;999.90;;;26.90;52.40;;;;;;5052647;28;20516;-74
2023/06/12 11:38:15;;;;;;;1999.90;999.90;;;26.70;51.70;;;;;;5052377;28;20904;-72
2023/06/12 11:40:43;;;;;;;1999.90;999.90;;;26.30;51.80;;;;;;5051781;28;20417;-72
2023/06/12 11:43:10;;;;;;;1999.90;999.90;;;26.20;53.70;;;;;;5052329;28;20433;-74
2023/06/12 11:45:41;;;;;;;1999.90;999.90;;;26.30;53.20;;;;;;5039209;28;20483;-74
2023/06/12 11:48:13;;;;;;;1999.90;999.90;;;26.80;53.90;;;;;;5029939;28;20923;-75
2023/06/12 11:50:40;;;;;;;1999.90;999.90;;;27.10;53.40;;;;;;5031270;28;20516;-75
2023/06/12 11:53:07;;;;;;;1999.90;999.90;;;27.40;53.80;;;;;;5040308;28;20458;-75
2023/06/12 11:55:36;;;;;;;1999.90;999.90;;;27.40;54.40;;;;;;5051875;28;20467;-74
2023/06/12 11:58:04;;;;;;;1999.90;999.90;;;27.40;55.70;;;;;;5052026;28;20460;-74
2023/06/12 12:00:33;;;;;;;1999.90;999.90;;;27.10;55.00;;;;;;5051706;28;20455;-74
2023/06/12 12:03:03;;;;;;;1999.90;999.90;;;26.70;54.80;;;;;;5051314;28;20941;-74